createdAt,value
2023-01-26T00:00:18.085Z,101258.34
2023-01-26T00:02:52.657Z,101262.25
2023-01-26T00:05:28.253Z,101264.56
2023-01-26T00:08:02.705Z,101263.41
2023-01-26T00:10:39.550Z,101259.12
2023-01-26T00:13:14.337Z,101255.25
2023-01-26T00:15:48.566Z,101254.47
2023-01-26T00:18:23.374Z,101239.69
2023-01-26T00:20:59.662Z,101233.47
2023-01-26T00:23:35.769Z,101238.53
2023-01-26T00:26:10.984Z,101241.25
2023-01-26T00:28:46.849Z,101233.47
2023-01-26T00:31:23.864Z,101228.81
2023-01-26T00:33:59.789Z,101228.81
2023-01-26T00:36:37.709Z,101234.25
2023-01-26T00:39:12.276Z,101233.47
2023-01-26T00:42:04.405Z,101235.41
2023-01-26T00:44:39.833Z,101222.59
2023-01-26T00:47:15.110Z,101222.59
2023-01-26T00:49:51.733Z,101228.03
2023-01-26T00:52:28.144Z,101230.37
2023-01-26T00:55:04.841Z,101219.87
2023-01-26T00:57:39.325Z,101225.69
2023-01-26T01:00:19.772Z,101225.69
2023-01-26T01:02:56.269Z,101226.09
2023-01-26T01:05:32.729Z,101212.09
2023-01-26T01:08:08.484Z,101217.53
2023-01-26T01:10:43.330Z,101210.94
2023-01-26T01:13:17.556Z,101215.59
2023-01-26T01:15:52.095Z,101216.75
2023-01-26T01:18:26.574Z,101214.41
2023-01-26T01:21:01.110Z,101207.81
2023-01-26T01:23:36.976Z,101210.94
2023-01-26T01:26:12.260Z,101206.25
2023-01-26T01:28:46.658Z,101200.81
2023-01-26T01:31:21.529Z,101203.94
2023-01-26T01:33:57.486Z,101208.59
2023-01-26T01:36:32.392Z,101209.75
2023-01-26T01:39:08.098Z,101197.72
2023-01-26T01:41:42.841Z,101193.81
2023-01-26T01:44:19.108Z,101200.81
2023-01-26T01:46:56.624Z,101196.53
2023-01-26T01:49:33.675Z,101184.50
2023-01-26T01:52:13.632Z,101177.88
2023-01-26T01:54:54.630Z,101176.72
2023-01-26T01:57:45.135Z,101175.56
2023-01-26T02:00:24.944Z,101182.16
2023-01-26T02:03:15.102Z,101186.81
2023-01-26T02:05:58.928Z,101179.44
2023-01-26T02:08:37.666Z,101182.94
2023-01-26T02:11:17.452Z,101178.28
2023-01-26T02:13:53.083Z,101179.44
2023-01-26T02:16:27.794Z,101175.16
2023-01-26T02:19:02.768Z,101175.16
2023-01-26T02:21:37.501Z,101165.84
2023-01-26T02:24:19.985Z,101164.28
2023-01-26T02:26:56.316Z,101170.50
2023-01-26T02:29:31.405Z,101160.00
2023-01-26T02:32:06.373Z,101165.84
2023-01-26T02:34:40.642Z,101158.06
2023-01-26T02:37:15.872Z,101147.56
2023-01-26T02:39:56.938Z,101145.63
2023-01-26T02:42:43.539Z,101137.09
2023-01-26T02:45:18.733Z,101138.25
2023-01-26T02:47:53.468Z,101123.12
2023-01-26T02:50:27.566Z,101128.53
2023-01-26T02:53:03.208Z,101116.09
2023-01-26T02:55:36.635Z,101111.06
2023-01-26T02:58:12.695Z,101111.84
2023-01-26T03:00:47.668Z,101104.84
2023-01-26T03:03:25.084Z,101104.84
2023-01-26T03:05:59.357Z,101099.00
2023-01-26T03:08:35.175Z,101102.50
2023-01-26T03:11:10.435Z,101091.22
2023-01-26T03:13:46.397Z,101094.34
2023-01-26T03:16:20.661Z,101092.00
2023-01-26T03:19:12.632Z,101078.44
2023-01-26T03:22:04.272Z,101079.97
2023-01-26T03:24:56.164Z,101082.31
2023-01-26T03:27:31.699Z,101078.81
2023-01-26T03:30:12.116Z,101064.84
2023-01-26T03:32:47.346Z,101067.97
2023-01-26T03:35:23.063Z,101067.97
2023-01-26T03:37:57.556Z,101066.03
2023-01-26T03:40:50.259Z,101065.66
2023-01-26T03:43:42.502Z,101065.66
2023-01-26T03:46:36.307Z,101062.16
2023-01-26T03:49:28.650Z,101059.44
2023-01-26T03:52:20.912Z,101051.28
2023-01-26T03:55:12.653Z,101047.75
2023-01-26T03:57:47.277Z,101054.00
2023-01-26T04:00:22.858Z,101048.56
2023-01-26T04:03:17.963Z,101039.25
2023-01-26T04:06:16.241Z,101032.22
2023-01-26T04:08:53.235Z,101039.97
2023-01-26T04:11:27.863Z,101032.22
2023-01-26T04:14:20.123Z,101034.53
2023-01-26T04:17:12.748Z,101038.03
2023-01-26T04:20:06.060Z,101036.09
2023-01-26T04:22:45.358Z,101025.59
2023-01-26T04:25:22.267Z,101033.75
2023-01-26T04:27:56.876Z,101024.44
2023-01-26T04:30:32.082Z,101027.94
2023-01-26T04:33:06.653Z,101022.16
2023-01-26T04:35:42.729Z,101025.25
2023-01-26T04:38:17.266Z,101020.59
2023-01-26T04:40:55.048Z,101032.25
2023-01-26T04:43:29.678Z,101022.16
2023-01-26T04:46:07.150Z,101020.22
2023-01-26T04:48:42.475Z,101019.44
2023-01-26T04:51:20.868Z,100991.56
2023-01-26T04:53:55.574Z,100994.56
2023-01-26T04:56:31.808Z,101000.72
2023-01-26T04:59:08.886Z,101002.50
2023-01-26T05:01:43.759Z,101006.34
2023-01-26T05:04:18.273Z,101007.59
2023-01-26T05:06:54.587Z,101004.97
2023-01-26T05:09:29.413Z,100998.34
2023-01-26T05:12:19.617Z,101010.03
2023-01-26T05:14:55.174Z,101004.19
2023-01-26T05:17:30.564Z,101003.03
2023-01-26T05:20:06.370Z,101015.88
2023-01-26T05:22:44.308Z,101010.44
2023-01-26T05:25:20.035Z,101011.25
2023-01-26T05:27:54.936Z,101003.44
2023-01-26T05:30:29.638Z,101012.78
2023-01-26T05:33:06.971Z,101008.88
2023-01-26T05:35:41.429Z,101000.41
2023-01-26T05:38:17.847Z,101001.88
2023-01-26T05:40:52.680Z,101003.09
2023-01-26T05:43:28.519Z,100990.72
2023-01-26T05:46:03.685Z,100996.25
2023-01-26T05:48:38.455Z,101005.66
2023-01-26T05:51:14.101Z,100999.56
2023-01-26T05:53:50.039Z,101005.28
2023-01-26T05:56:24.420Z,101002.72
2023-01-26T05:58:59.333Z,101002.84
2023-01-26T06:01:33.793Z,101008.75
2023-01-26T06:04:08.591Z,101007.97
2023-01-26T06:06:43.154Z,101008.00
2023-01-26T06:09:20.158Z,101012.72
2023-01-26T06:11:56.319Z,101011.16
2023-01-26T06:14:31.434Z,100993.31
2023-01-26T06:17:05.789Z,101000.09
2023-01-26T06:19:41.258Z,101001.44
2023-01-26T06:22:16.194Z,100999.41
2023-01-26T06:24:53.015Z,101011.91
2023-01-26T06:27:27.576Z,101001.53
2023-01-26T06:30:05.545Z,101011.38
2023-01-26T06:32:48.913Z,101013.41
2023-01-26T06:35:24.495Z,101012.72
2023-01-26T06:37:59.162Z,101006.53
2023-01-26T06:40:36.020Z,101005.00
2023-01-26T06:43:10.820Z,101002.34
2023-01-26T06:45:47.229Z,101001.19
2023-01-26T06:48:22.649Z,101008.12
2023-01-26T06:50:58.657Z,101013.59
2023-01-26T06:53:36.415Z,101007.41
2023-01-26T06:56:14.153Z,101011.28
2023-01-26T06:58:49.603Z,101007.78
2023-01-26T07:02:55.345Z,100993.84
2023-01-26T07:05:30.294Z,100993.47
2023-01-26T07:08:08.640Z,101002.16
2023-01-26T07:10:44.225Z,100999.03
2023-01-26T07:13:18.940Z,100997.53
2023-01-26T07:15:53.711Z,101005.75
2023-01-26T07:18:29.322Z,100991.78
2023-01-26T07:21:04.929Z,100994.13
2023-01-26T07:23:39.876Z,100984.84
2023-01-26T07:26:14.696Z,100998.41
2023-01-26T07:28:49.256Z,100988.75
2023-01-26T07:31:24.059Z,100997.31
2023-01-26T07:33:59.924Z,100987.22
2023-01-26T07:36:34.474Z,100999.22
2023-01-26T07:39:08.964Z,100998.47
2023-01-26T07:41:43.627Z,100994.22
2023-01-26T07:44:20.409Z,100995.75
2023-01-26T07:46:55.081Z,100996.91
2023-01-26T07:49:31.141Z,100977.94
2023-01-26T07:52:06.466Z,100986.28
2023-01-26T07:54:40.699Z,100982.91
2023-01-26T07:57:15.267Z,100979.69
2023-01-26T07:59:50.300Z,100996.41
2023-01-26T08:02:24.919Z,100996.94
2023-01-26T08:05:01.008Z,100996.94
2023-01-26T08:07:35.326Z,100993.78
2023-01-26T08:10:12.855Z,100989.25
2023-01-26T08:12:47.219Z,100985.75
2023-01-26T08:15:22.006Z,100997.94
2023-01-26T08:17:56.730Z,100991.28
2023-01-26T08:20:33.093Z,100994.78
2023-01-26T08:23:07.414Z,100988.25
2023-01-26T08:25:41.997Z,100979.87
2023-01-26T08:28:16.727Z,100961.09
2023-01-26T08:30:51.618Z,100978.81
2023-01-26T08:33:26.085Z,100978.19
2023-01-26T08:36:04.163Z,100973.03
2023-01-26T08:38:38.996Z,100973.69
2023-01-26T08:41:13.736Z,100978.06
2023-01-26T08:43:47.987Z,100976.94
2023-01-26T08:46:22.538Z,100983.19
2023-01-26T08:48:58.243Z,100980.91
2023-01-26T08:51:36.022Z,100991.38
2023-01-26T08:54:10.284Z,100994.09
2023-01-26T08:56:44.771Z,100991.00
2023-01-26T08:59:19.204Z,100978.56
2023-01-26T09:01:55.808Z,100991.81
2023-01-26T09:04:30.422Z,100996.84
2023-01-26T09:07:07.057Z,100991.75
2023-01-26T09:09:41.236Z,100992.56
2023-01-26T09:12:15.707Z,100994.56
2023-01-26T09:14:50.033Z,100972.28
2023-01-26T09:17:24.606Z,100968.81
2023-01-26T09:19:59.143Z,100968.22
2023-01-26T09:22:35.109Z,100980.00
2023-01-26T09:25:10.870Z,100977.31
2023-01-26T09:27:45.865Z,100980.47
2023-01-26T09:30:20.840Z,100980.06
2023-01-26T09:33:00.097Z,100986.91
2023-01-26T09:35:35.359Z,100979.22
2023-01-26T09:38:11.294Z,100971.50
2023-01-26T09:40:56.629Z,100976.94
2023-01-26T09:43:39.354Z,100976.19
2023-01-26T09:46:23.264Z,100969.16
2023-01-26T09:49:06.512Z,100970.75
2023-01-26T09:51:44.512Z,100970.00
2023-01-26T09:54:27.861Z,100967.28
2023-01-26T09:57:03.766Z,100959.37
2023-01-26T09:59:45.685Z,100932.13
2023-01-26T10:02:30.457Z,100929.00
2023-01-26T10:05:16.053Z,100948.78
2023-01-26T10:07:50.443Z,100943.06
2023-01-26T10:10:33.604Z,100934.53
2023-01-26T10:13:07.558Z,100932.47
2023-01-26T10:15:44.371Z,100928.06
2023-01-26T10:18:27.492Z,100919.66
2023-01-26T10:21:06.098Z,100926.41
2023-01-26T10:23:48.583Z,100926.13
2023-01-26T10:26:25.163Z,100918.03
2023-01-26T10:28:59.844Z,100915.75
2023-01-26T10:31:35.770Z,100921.97
2023-01-26T10:34:15.027Z,100914.59
2023-01-26T10:36:49.543Z,100907.63
2023-01-26T10:39:23.837Z,100903.78
2023-01-26T10:42:02.647Z,100910.72
2023-01-26T10:44:40.389Z,100900.63
2023-01-26T10:47:17.645Z,100904.47
2023-01-26T10:49:52.037Z,100895.97
2023-01-26T10:52:26.900Z,100908.37
2023-01-26T10:55:13.945Z,100900.59
2023-01-26T10:57:50.273Z,100884.75
2023-01-26T11:00:29.124Z,100890.94
2023-01-26T11:03:08.115Z,100877.31
2023-01-26T11:05:43.623Z,100879.59
2023-01-26T11:08:34.908Z,100860.00
2023-01-26T11:11:25.734Z,100868.47
2023-01-26T11:14:16.964Z,100867.81
2023-01-26T11:16:55.339Z,100871.25
2023-01-26T11:19:57.890Z,100865.28
2023-01-26T11:22:38.452Z,100862.66
2023-01-26T11:25:22.186Z,100860.81
2023-01-26T11:28:21.435Z,100859.53
2023-01-26T11:31:12.528Z,100858.66
2023-01-26T11:33:58.109Z,100856.84
2023-01-26T11:36:43.796Z,100849.78
2023-01-26T11:39:26.330Z,100829.84
2023-01-26T11:42:17.859Z,100829.09
2023-01-26T11:45:21.064Z,100828.72
2023-01-26T11:48:13.707Z,100837.06
2023-01-26T11:50:56.624Z,100829.78
2023-01-26T11:54:05.461Z,100810.94
2023-01-26T11:56:49.952Z,100805.56
2023-01-26T11:59:32.348Z,100808.50
2023-01-26T12:02:21.612Z,100800.97
2023-01-26T12:05:01.075Z,100804.56
2023-01-26T12:07:54.731Z,100800.84
2023-01-26T12:10:36.045Z,100792.38
2023-01-26T12:13:20.387Z,100794.66
2023-01-26T12:16:00.062Z,100793.09
2023-01-26T12:18:53.213Z,100790.31
2023-01-26T12:21:37.248Z,100783.72
2023-01-26T12:24:39.249Z,100793.09
2023-01-26T12:27:17.664Z,100779.03
2023-01-26T12:29:58.170Z,100780.50
2023-01-26T12:32:34.580Z,100766.53
2023-01-26T12:35:12.792Z,100768.91
2023-01-26T12:37:57.618Z,100752.81
2023-01-26T12:40:42.871Z,100756.56
2023-01-26T12:43:28.687Z,100755.09
2023-01-26T12:46:04.463Z,100766.00
2023-01-26T12:48:44.735Z,100761.00
2023-01-26T12:51:25.001Z,100763.19
2023-01-26T12:54:04.311Z,100753.28
2023-01-26T12:56:43.465Z,100754.63
2023-01-26T12:59:39.168Z,100753.91
2023-01-26T13:02:30.369Z,100755.69
2023-01-26T13:05:08.307Z,100753.19
2023-01-26T13:07:42.714Z,100757.56
2023-01-26T13:10:50.240Z,100731.06
2023-01-26T13:13:30.307Z,100734.78
2023-01-26T13:16:33.559Z,100734.84
2023-01-26T13:19:38.141Z,100745.97
2023-01-26T13:22:40.373Z,100743.13
2023-01-26T13:25:19.570Z,100750.84
2023-01-26T13:27:58.872Z,100753.00
2023-01-26T13:30:47.265Z,100740.28
2023-01-26T13:33:24.540Z,100743.84
2023-01-26T13:36:03.522Z,100737.66
2023-01-26T13:38:43.931Z,100741.53
2023-01-26T13:41:21.048Z,100725.50
2023-01-26T13:44:07.961Z,100715.91
2023-01-26T13:46:48.531Z,100725.97
2023-01-26T13:49:28.074Z,100721.75
2023-01-26T13:52:03.451Z,100727.84
2023-01-26T13:54:41.590Z,100729.41
2023-01-26T13:57:23.343Z,100732.06
2023-01-26T14:00:02.013Z,100727.50
2023-01-26T14:02:41.883Z,100735.47
2023-01-26T14:05:23.368Z,100738.00
2023-01-26T14:07:57.803Z,100737.34
2023-01-26T14:10:34.160Z,100727.31
2023-01-26T14:13:08.442Z,100722.66
2023-01-26T14:15:44.389Z,100727.75
2023-01-26T14:18:22.792Z,100735.47
2023-01-26T14:21:02.054Z,100733.28
2023-01-26T14:23:38.054Z,100735.09
2023-01-26T14:26:20.504Z,100718.59
2023-01-26T14:28:54.671Z,100714.22
2023-01-26T14:31:32.407Z,100712.75
2023-01-26T14:34:11.390Z,100728.09
2023-01-26T14:36:46.045Z,100728.72
2023-01-26T14:39:22.048Z,100732.44
2023-01-26T14:41:57.205Z,100735.34
2023-01-26T14:44:31.496Z,100720.25
2023-01-26T14:47:14.686Z,100718.31
2023-01-26T14:49:53.954Z,100728.13
2023-01-26T14:52:31.263Z,100722.78
2023-01-26T14:55:07.796Z,100722.47
2023-01-26T14:57:42.582Z,100720.09
2023-01-26T15:00:27.908Z,100698.37
2023-01-26T15:03:36.425Z,100710.53
2023-01-26T15:06:23.946Z,100710.53
2023-01-26T15:09:01.747Z,100719.09
2023-01-26T15:11:55.824Z,100712.97
2023-01-26T15:14:36.643Z,100715.16
2023-01-26T15:17:28.935Z,100709.94
2023-01-26T15:20:12.151Z,100722.16
2023-01-26T15:22:51.697Z,100721.47
2023-01-26T15:25:28.202Z,100722.78
2023-01-26T15:28:02.890Z,100716.44
2023-01-26T15:30:38.675Z,100723.34
2023-01-26T15:33:49.755Z,100723.78
2023-01-26T15:36:34.337Z,100721.41
2023-01-26T15:39:14.240Z,100732.00
2023-01-26T15:42:12.695Z,100732.44
2023-01-26T15:44:47.318Z,100720.84
2023-01-26T15:47:21.765Z,100726.34
2023-01-26T15:49:57.343Z,100724.78
2023-01-26T15:52:33.673Z,100726.75
2023-01-26T15:55:20.983Z,100727.44
2023-01-26T15:57:55.323Z,100723.56
2023-01-26T16:00:30.424Z,100723.94
2023-01-26T16:03:13.800Z,100723.91
2023-01-26T16:05:48.854Z,100720.78
2023-01-26T16:08:24.818Z,100723.12
2023-01-26T16:11:00.820Z,100718.47
2023-01-26T16:13:35.419Z,100722.81
2023-01-26T16:16:11.408Z,100721.72
2023-01-26T16:18:46.447Z,100720.53
2023-01-26T16:21:23.323Z,100725.94
2023-01-26T16:24:00.280Z,100727.53
2023-01-26T16:26:34.829Z,100729.91
2023-01-26T16:29:09.434Z,100720.59
2023-01-26T16:31:43.784Z,100717.09
2023-01-26T16:34:18.285Z,100724.56
2023-01-26T16:36:52.554Z,100723.38
2023-01-26T16:39:28.976Z,100715.94
2023-01-26T16:42:03.392Z,100718.75
2023-01-26T16:44:37.897Z,100717.66
2023-01-26T16:47:12.247Z,100720.75
2023-01-26T16:49:47.544Z,100720.66
2023-01-26T16:52:21.706Z,100711.44
2023-01-26T16:54:57.630Z,100723.88
2023-01-26T16:57:31.855Z,100712.63
2023-01-26T17:00:07.460Z,100698.94
2023-01-26T17:02:43.797Z,100706.00
2023-01-26T17:05:21.909Z,100702.13
2023-01-26T17:07:56.351Z,100702.81
2023-01-26T17:10:32.693Z,100703.62
2023-01-26T17:13:07.516Z,100699.03
2023-01-26T17:15:42.088Z,100700.63
2023-01-26T17:18:16.569Z,100699.03
2023-01-26T17:20:51.171Z,100700.25
2023-01-26T17:23:25.709Z,100701.81
2023-01-26T17:26:02.178Z,100701.75
2023-01-26T17:28:36.409Z,100699.00
2023-01-26T17:31:13.881Z,100696.38
2023-01-26T17:33:50.672Z,100709.88
2023-01-26T17:36:25.505Z,100709.44
2023-01-26T17:38:59.923Z,100711.44
2023-01-26T17:41:36.097Z,100710.69
2023-01-26T17:44:10.751Z,100707.94
2023-01-26T17:46:45.603Z,100703.66
2023-01-26T17:49:21.598Z,100692.81
2023-01-26T17:51:56.189Z,100700.19
2023-01-26T17:54:30.530Z,100697.87
2023-01-26T17:57:06.820Z,100694.81
2023-01-26T17:59:41.389Z,100700.25
2023-01-26T18:02:16.995Z,100700.59
2023-01-26T18:04:51.590Z,100692.03
2023-01-26T18:07:26.181Z,100696.38
2023-01-26T18:10:00.764Z,100692.16
2023-01-26T18:12:37.940Z,100693.69
2023-01-26T18:15:13.484Z,100692.97
2023-01-26T18:17:48.002Z,100694.41
2023-01-26T18:20:23.351Z,100692.03
2023-01-26T18:22:57.940Z,100692.03
2023-01-26T18:25:34.433Z,100684.31
2023-01-26T18:28:10.326Z,100691.72
2023-01-26T18:30:44.957Z,100688.97
2023-01-26T18:33:19.421Z,100683.94
2023-01-26T18:35:54.076Z,100686.66
2023-01-26T18:38:28.654Z,100664.00
2023-01-26T18:41:03.488Z,100680.59
2023-01-26T18:43:39.386Z,100678.69
2023-01-26T18:46:14.049Z,100681.22
2023-01-26T18:48:48.639Z,100682.66
2023-01-26T18:51:23.442Z,100687.09
2023-01-26T18:53:57.850Z,100687.16
2023-01-26T18:56:33.826Z,100696.06
2023-01-26T18:59:10.844Z,100685.25
2023-01-26T19:01:45.883Z,100692.62
2023-01-26T19:04:20.429Z,100687.87
2023-01-26T19:06:55.281Z,100691.84
2023-01-26T19:09:34.981Z,100688.75
2023-01-26T19:12:09.885Z,100683.31
2023-01-26T19:14:47.709Z,100682.56
2023-01-26T19:17:22.644Z,100664.34
2023-01-26T19:19:57.237Z,100661.66
2023-01-26T19:22:32.037Z,100654.78
2023-01-26T19:25:07.418Z,100658.66
2023-01-26T19:27:42.219Z,100666.75
2023-01-26T19:30:19.084Z,100665.47
2023-01-26T19:33:10.724Z,100660.31
2023-01-26T19:35:45.236Z,100661.56
2023-01-26T19:38:20.210Z,100668.22
2023-01-26T19:40:54.547Z,100661.03
2023-01-26T19:43:29.865Z,100660.87
2023-01-26T19:46:08.523Z,100659.59
2023-01-26T19:48:44.202Z,100664.81
2023-01-26T19:51:20.559Z,100657.47
2023-01-26T19:53:57.011Z,100657.19
2023-01-26T19:56:33.479Z,100658.94
2023-01-26T19:59:11.004Z,100655.38
2023-01-26T20:01:47.130Z,100660.72
2023-01-26T20:04:21.866Z,100660.37
2023-01-26T20:06:56.032Z,100657.16
2023-01-26T20:09:33.511Z,100658.31
2023-01-26T20:12:09.356Z,100660.37
2023-01-26T20:14:44.536Z,100642.75
2023-01-26T20:17:20.628Z,100635.62
2023-01-26T20:19:56.489Z,100630.91
2023-01-26T20:22:33.669Z,100636.13
2023-01-26T20:25:11.342Z,100648.72
2023-01-26T20:27:46.472Z,100649.12
2023-01-26T20:30:21.351Z,100644.63
2023-01-26T20:32:57.810Z,100642.50
2023-01-26T20:35:32.869Z,100647.50
2023-01-26T20:38:07.616Z,100644.53
2023-01-26T20:40:42.541Z,100650.13
2023-01-26T20:43:17.280Z,100641.56
2023-01-26T20:45:52.127Z,100643.94
2023-01-26T20:48:28.050Z,100647.47
2023-01-26T20:51:09.650Z,100638.19
2023-01-26T20:53:44.770Z,100638.62
2023-01-26T20:56:22.475Z,100644.16
2023-01-26T20:58:57.615Z,100644.19
2023-01-26T21:01:35.069Z,100641.09
2023-01-26T21:04:10.888Z,100627.37
2023-01-26T21:06:45.895Z,100614.19
2023-01-26T21:09:21.249Z,100608.38
2023-01-26T21:11:55.865Z,100617.53
2023-01-26T21:14:30.431Z,100627.09
2023-01-26T21:17:05.442Z,100637.19
2023-01-26T21:19:41.443Z,100630.84
2023-01-26T21:22:16.333Z,100634.75
2023-01-26T21:24:50.544Z,100632.56
2023-01-26T21:27:25.248Z,100635.50
2023-01-26T21:29:59.712Z,100627.81
2023-01-26T21:32:34.499Z,100630.50
2023-01-26T21:35:11.166Z,100624.84
2023-01-26T21:37:46.090Z,100628.06
2023-01-26T21:40:20.581Z,100621.41
2023-01-26T21:42:55.554Z,100627.25
2023-01-26T21:45:47.692Z,100620.69
2023-01-26T21:48:38.140Z,100613.78
2023-01-26T21:51:31.541Z,100615.38
2023-01-26T21:54:07.211Z,100620.00
2023-01-26T21:56:41.622Z,100608.38
2023-01-26T21:59:18.184Z,100604.50
2023-01-26T22:01:53.971Z,100606.81
2023-01-26T22:04:30.148Z,100605.69
2023-01-26T22:07:05.879Z,100601.81
2023-01-26T22:09:41.252Z,100593.78
2023-01-26T22:12:16.043Z,100596.19
2023-01-26T22:14:52.121Z,100594.53
2023-01-26T22:17:26.494Z,100586.88
2023-01-26T22:20:01.625Z,100592.75
2023-01-26T22:22:38.199Z,100585.75
2023-01-26T22:25:12.905Z,100587.78
2023-01-26T22:27:47.196Z,100583.88
2023-01-26T22:30:23.082Z,100578.38
2023-01-26T22:32:57.288Z,100572.97
2023-01-26T22:35:32.517Z,100568.00
2023-01-26T22:38:08.175Z,100583.53
2023-01-26T22:40:42.757Z,100579.28
2023-01-26T22:43:17.020Z,100578.50
2023-01-26T22:45:51.530Z,100569.16
2023-01-26T22:48:26.262Z,100576.94
2023-01-26T22:51:07.982Z,100572.91
2023-01-26T22:53:43.753Z,100565.22
2023-01-26T22:56:19.082Z,100564.03
2023-01-26T22:58:58.588Z,100569.44
2023-01-26T23:03:20.343Z,100562.44
2023-01-26T23:06:01.048Z,100562.44
2023-01-26T23:08:35.569Z,100562.94
2023-01-26T23:11:13.881Z,100563.72
2023-01-26T23:13:50.082Z,100565.59
2023-01-26T23:16:25.959Z,100557.06
2023-01-26T23:19:01.606Z,100555.13
2023-01-26T23:21:36.447Z,100559.75
2023-01-26T23:24:10.743Z,100557.72
2023-01-26T23:26:45.291Z,100567.84
2023-01-26T23:29:20.141Z,100562.03
2023-01-26T23:31:54.858Z,100556.53
2023-01-26T23:34:30.653Z,100560.41
2023-01-26T23:37:05.168Z,100555.34
2023-01-26T23:39:39.624Z,100560.78
2023-01-26T23:42:15.829Z,100552.25
2023-01-26T23:44:50.478Z,100560.78
2023-01-26T23:47:25.049Z,100542.22
2023-01-26T23:50:01.036Z,100558.97
2023-01-26T23:52:35.618Z,100554.28
2023-01-26T23:55:10.047Z,100556.22
2023-01-26T23:57:44.692Z,100564.34
